createdAt,value
2023-03-26T00:01:46.763Z,100.00
2023-03-26T00:04:49.987Z,100.00
2023-03-26T00:07:52.145Z,100.00
2023-03-26T00:10:54.332Z,100.00
2023-03-26T00:13:57.820Z,100.00
2023-03-26T00:17:00.392Z,100.00
2023-03-26T00:20:03.201Z,100.00
2023-03-26T00:23:05.464Z,100.00
2023-03-26T00:26:10.554Z,100.00
2023-03-26T00:29:14.016Z,100.00
2023-03-26T00:32:16.847Z,100.00
2023-03-26T00:35:19.210Z,100.00
2023-03-26T00:38:23.992Z,100.00
2023-03-26T00:41:27.125Z,100.00
2023-03-26T00:44:29.367Z,100.00
2023-03-26T00:47:31.791Z,100.00
2023-03-26T00:50:34.051Z,100.00
2023-03-26T00:53:38.888Z,100.00
2023-03-26T00:56:41.186Z,100.00
2023-03-26T00:59:43.417Z,100.00
2023-03-26T01:02:46.233Z,100.00
2023-03-26T01:05:55.936Z,100.00
2023-03-26T01:09:00.534Z,100.00
2023-03-26T01:12:05.255Z,100.00
2023-03-26T01:15:08.360Z,100.00
2023-03-26T01:18:14.107Z,100.00
2023-03-26T01:21:22.848Z,100.00
2023-03-26T01:24:25.221Z,100.00
2023-03-26T01:27:33.657Z,100.00
2023-03-26T01:30:52.454Z,100.00
2023-03-26T01:34:07.258Z,100.00
2023-03-26T01:37:32.654Z,100.00
2023-03-26T01:40:42.635Z,100.00
2023-03-26T01:43:56.179Z,100.00
2023-03-26T01:46:59.867Z,100.00
2023-03-26T01:50:02.133Z,100.00
2023-03-26T01:53:04.842Z,100.00
2023-03-26T01:56:25.966Z,100.00
2023-03-26T01:59:31.300Z,100.00
2023-03-26T02:03:05.001Z,100.00
2023-03-26T02:06:17.557Z,100.00
2023-03-26T02:09:23.980Z,100.00
2023-03-26T02:12:26.753Z,100.00
2023-03-26T02:15:28.932Z,100.00
2023-03-26T02:18:36.431Z,100.00
2023-03-26T02:21:38.684Z,100.00
2023-03-26T02:24:43.802Z,100.00
2023-03-26T02:27:46.975Z,100.00
2023-03-26T02:30:49.117Z,100.00
2023-03-26T02:33:51.303Z,100.00
2023-03-26T02:36:53.651Z,100.00
2023-03-26T02:39:56.369Z,100.00
2023-03-26T02:42:58.813Z,100.00
2023-03-26T02:46:01.073Z,100.00
2023-03-26T02:49:03.301Z,100.00
2023-03-26T02:52:06.714Z,100.00
2023-03-26T02:55:09.346Z,100.00
2023-03-26T02:58:12.589Z,100.00
2023-03-26T03:01:18.538Z,100.00
2023-03-26T03:04:21.403Z,100.00
2023-03-26T03:07:25.177Z,100.00
2023-03-26T03:10:28.167Z,100.00
2023-03-26T03:13:30.371Z,100.00
2023-03-26T03:16:33.235Z,100.00
2023-03-26T03:19:35.447Z,100.00
2023-03-26T03:22:37.702Z,100.00
2023-03-26T03:25:41.176Z,100.00
2023-03-26T03:28:45.104Z,100.00
2023-03-26T03:31:47.324Z,100.00
2023-03-26T03:34:52.550Z,100.00
2023-03-26T03:37:54.755Z,100.00
2023-03-26T03:40:56.941Z,100.00
2023-03-26T03:44:01.567Z,100.00
2023-03-26T03:47:03.872Z,100.00
2023-03-26T03:50:06.992Z,100.00
2023-03-26T03:53:09.192Z,100.00
2023-03-26T03:56:13.904Z,100.00
2023-03-26T03:59:16.086Z,100.00
2023-03-26T04:02:30.400Z,100.00
2023-03-26T04:05:33.702Z,100.00
2023-03-26T04:08:36.399Z,100.00
2023-03-26T04:11:38.594Z,100.00
2023-03-26T04:14:41.161Z,100.00
2023-03-26T04:17:43.923Z,100.00
2023-03-26T04:20:46.545Z,100.00
2023-03-26T04:23:48.984Z,100.00
2023-03-26T04:26:51.192Z,100.00
2023-03-26T04:29:53.448Z,100.00
2023-03-26T04:32:58.611Z,100.00
2023-03-26T04:36:04.120Z,100.00
2023-03-26T04:39:06.741Z,100.00
2023-03-26T04:42:10.172Z,100.00
2023-03-26T04:45:14.236Z,100.00
2023-03-26T04:48:16.439Z,100.00
2023-03-26T04:51:21.961Z,100.00
2023-03-26T04:54:24.662Z,100.00
2023-03-26T04:57:35.069Z,100.00
2023-03-26T05:00:37.221Z,100.00
2023-03-26T05:03:41.418Z,100.00
2023-03-26T05:06:43.776Z,100.00
2023-03-26T05:09:46.165Z,100.00
2023-03-26T05:12:48.674Z,100.00
2023-03-26T05:15:51.027Z,100.00
2023-03-26T05:18:54.090Z,100.00
2023-03-26T05:21:56.448Z,100.00
2023-03-26T05:24:58.633Z,100.00
2023-03-26T05:28:01.784Z,100.00
2023-03-26T05:31:04.044Z,100.00
2023-03-26T05:34:06.790Z,100.00
2023-03-26T05:37:09.304Z,100.00
2023-03-26T05:40:14.763Z,100.00
2023-03-26T05:43:16.898Z,82.62
2023-03-26T05:46:20.432Z,83.48
2023-03-26T05:49:22.740Z,100.00
2023-03-26T05:52:25.186Z,100.00
2023-03-26T05:55:27.796Z,100.00
2023-03-26T05:58:33.226Z,100.00
2023-03-26T06:01:35.460Z,100.00
2023-03-26T06:04:41.282Z,100.00
2023-03-26T06:07:43.583Z,100.00
2023-03-26T06:10:45.764Z,100.00
2023-03-26T06:13:47.975Z,99.93
2023-03-26T06:16:50.162Z,96.52
2023-03-26T06:19:52.326Z,95.73
2023-03-26T06:22:54.501Z,96.09
2023-03-26T06:25:56.864Z,92.46
2023-03-26T06:28:59.053Z,90.74
2023-03-26T06:32:12.474Z,92.08
2023-03-26T06:35:21.059Z,88.99
2023-03-26T06:38:23.332Z,89.02
2023-03-26T06:41:25.794Z,88.46
2023-03-26T06:44:28.094Z,85.62
2023-03-26T06:47:30.244Z,83.77
2023-03-26T06:50:33.121Z,84.87
2023-03-26T06:53:35.924Z,77.54
2023-03-26T06:56:38.198Z,79.00
2023-03-26T06:59:40.512Z,79.45
2023-03-26T07:02:42.756Z,79.87
2023-03-26T07:05:44.985Z,77.68
2023-03-26T07:08:47.244Z,75.86
2023-03-26T07:11:49.434Z,77.57
2023-03-26T07:14:51.651Z,76.39
2023-03-26T07:17:53.902Z,73.39
2023-03-26T07:20:56.594Z,73.14
2023-03-26T07:23:59.241Z,71.85
2023-03-26T07:27:57.156Z,70.83
2023-03-26T07:31:15.873Z,71.35
2023-03-26T07:34:45.961Z,65.27
2023-03-26T07:38:14.074Z,68.38
2023-03-26T07:41:27.620Z,66.34
2023-03-26T07:44:45.474Z,65.43
2023-03-26T07:47:49.680Z,64.97
2023-03-26T07:50:52.501Z,63.25
2023-03-26T07:53:55.605Z,63.30
2023-03-26T07:57:09.675Z,64.63
2023-03-26T08:00:16.329Z,65.35
2023-03-26T08:03:22.081Z,62.30
2023-03-26T08:06:32.890Z,63.94
2023-03-26T08:10:02.899Z,61.94
2023-03-26T08:13:33.058Z,62.46
2023-03-26T08:16:44.257Z,62.75
2023-03-26T08:19:57.934Z,63.94
2023-03-26T08:23:09.568Z,62.37
2023-03-26T08:26:23.912Z,60.53
2023-03-26T08:29:55.703Z,63.11
2023-03-26T08:33:00.729Z,60.11
2023-03-26T08:36:03.002Z,61.14
2023-03-26T08:39:06.195Z,61.84
2023-03-26T08:42:20.486Z,63.60
2023-03-26T08:46:00.375Z,64.98
2023-03-26T08:49:40.793Z,63.19
2023-03-26T08:53:08.565Z,62.57
2023-03-26T08:56:27.430Z,63.68
2023-03-26T08:59:51.300Z,64.32
2023-03-26T09:03:08.443Z,64.55
2023-03-26T09:06:25.591Z,63.79
2023-03-26T09:10:09.415Z,65.26
2023-03-26T09:13:53.060Z,64.67
2023-03-26T09:17:36.697Z,63.83
2023-03-26T09:21:00.331Z,63.17
2023-03-26T09:24:25.530Z,63.37
2023-03-26T09:27:52.507Z,61.36
2023-03-26T09:31:07.720Z,61.69
2023-03-26T09:35:05.423Z,60.29
2023-03-26T09:38:25.679Z,60.05
2023-03-26T09:41:31.005Z,61.73
2023-03-26T09:44:48.309Z,63.07
2023-03-26T09:47:50.437Z,61.62
2023-03-26T09:50:58.805Z,61.94
2023-03-26T09:54:44.250Z,62.46
2023-03-26T09:58:02.226Z,62.54
2023-03-26T10:01:25.814Z,62.65
2023-03-26T10:04:46.799Z,62.33
2023-03-26T10:08:32.348Z,60.74
2023-03-26T10:11:56.540Z,57.98
2023-03-26T10:15:17.247Z,58.85
2023-03-26T10:18:28.497Z,57.94
2023-03-26T10:21:44.703Z,59.16
2023-03-26T10:25:08.266Z,58.88
2023-03-26T10:28:26.599Z,56.91
2023-03-26T10:31:51.556Z,56.82
2023-03-26T10:35:19.656Z,57.70
2023-03-26T10:38:33.094Z,58.42
2023-03-26T10:41:45.278Z,57.35
2023-03-26T10:45:25.093Z,56.48
2023-03-26T10:48:33.499Z,57.87
2023-03-26T10:52:03.882Z,57.73
2023-03-26T10:55:15.099Z,58.65
2023-03-26T10:58:49.339Z,59.91
2023-03-26T11:02:04.201Z,59.81
2023-03-26T11:05:27.926Z,60.03
2023-03-26T11:08:31.092Z,60.03
2023-03-26T11:12:03.399Z,57.07
2023-03-26T11:16:03.060Z,58.03
2023-03-26T11:19:16.938Z,59.01
2023-03-26T11:22:33.723Z,59.18
2023-03-26T11:25:39.224Z,58.87
2023-03-26T11:29:31.386Z,57.00
2023-03-26T11:32:42.743Z,56.30
2023-03-26T11:35:48.876Z,57.45
2023-03-26T11:38:52.291Z,57.94
2023-03-26T11:42:08.085Z,56.67
2023-03-26T11:45:19.717Z,54.09
2023-03-26T11:48:30.702Z,56.65
2023-03-26T11:51:35.179Z,57.01
2023-03-26T11:54:38.840Z,56.37
2023-03-26T11:57:45.535Z,55.58
2023-03-26T12:00:48.763Z,54.39
2023-03-26T12:04:13.584Z,54.59
2023-03-26T12:07:18.821Z,53.88
2023-03-26T12:10:28.772Z,54.82
2023-03-26T12:13:39.563Z,56.37
2023-03-26T12:16:59.387Z,56.56
2023-03-26T12:20:22.654Z,57.26
2023-03-26T12:24:00.319Z,55.66
2023-03-26T12:27:25.583Z,54.85
2023-03-26T12:30:37.386Z,48.95
2023-03-26T12:33:40.542Z,49.64
2023-03-26T12:36:55.305Z,49.67
2023-03-26T12:40:28.563Z,48.08
2023-03-26T12:44:55.536Z,49.71
2023-03-26T12:47:57.631Z,50.36
2023-03-26T12:51:08.575Z,48.94
2023-03-26T12:54:37.318Z,48.18
2023-03-26T12:58:13.738Z,46.56
2023-03-26T13:01:41.913Z,45.36
2023-03-26T13:05:06.532Z,45.28
2023-03-26T13:08:33.951Z,42.17
2023-03-26T13:12:30.375Z,41.19
2023-03-26T13:15:36.800Z,41.11
2023-03-26T13:19:00.379Z,40.20
2023-03-26T13:22:27.434Z,41.06
2023-03-26T13:25:52.723Z,42.04
2023-03-26T13:29:06.979Z,41.57
2023-03-26T13:32:57.599Z,42.27
2023-03-26T13:36:21.634Z,41.05
2023-03-26T13:39:37.287Z,38.68
2023-03-26T13:43:01.419Z,38.49
2023-03-26T13:46:11.562Z,36.39
2023-03-26T13:49:16.587Z,37.17
2023-03-26T13:52:35.356Z,39.07
2023-03-26T13:55:50.387Z,39.57
2023-03-26T13:58:56.618Z,40.54
2023-03-26T14:02:11.998Z,41.24
2023-03-26T14:05:28.048Z,41.07
2023-03-26T14:08:36.888Z,41.05
2023-03-26T14:11:56.637Z,40.97
2023-03-26T14:15:21.948Z,41.31
2023-03-26T14:18:36.341Z,39.90
2023-03-26T14:21:44.641Z,38.70
2023-03-26T14:25:08.649Z,38.86
2023-03-26T14:28:15.677Z,39.09
2023-03-26T14:31:37.132Z,39.19
2023-03-26T14:34:46.916Z,39.38
2023-03-26T14:37:58.616Z,39.21
2023-03-26T14:41:22.987Z,38.70
2023-03-26T14:44:49.935Z,39.52
2023-03-26T14:47:54.966Z,37.42
2023-03-26T14:51:26.288Z,36.56
2023-03-26T14:54:31.658Z,37.20
2023-03-26T14:57:55.406Z,37.57
2023-03-26T15:01:22.922Z,37.98
2023-03-26T15:04:34.586Z,37.68
2023-03-26T15:07:53.290Z,36.67
2023-03-26T15:11:25.721Z,36.40
2023-03-26T15:14:56.947Z,36.10
2023-03-26T15:18:08.394Z,36.06
2023-03-26T15:21:28.669Z,35.28
2023-03-26T15:24:49.795Z,35.47
2023-03-26T15:28:15.423Z,35.70
2023-03-26T15:31:37.012Z,36.04
2023-03-26T15:35:14.890Z,35.83
2023-03-26T15:38:35.546Z,36.96
2023-03-26T15:42:13.240Z,36.50
2023-03-26T15:45:22.569Z,35.37
2023-03-26T15:48:43.670Z,35.12
2023-03-26T15:51:50.313Z,37.06
2023-03-26T15:55:26.248Z,37.86
2023-03-26T15:58:33.085Z,37.68
2023-03-26T16:01:42.703Z,37.51
2023-03-26T16:04:51.789Z,38.20
2023-03-26T16:08:14.829Z,39.25
2023-03-26T16:11:43.206Z,39.52
2023-03-26T16:14:47.768Z,40.02
2023-03-26T16:18:19.145Z,40.34
2023-03-26T16:21:32.640Z,40.53
2023-03-26T16:24:39.383Z,40.37
2023-03-26T16:27:42.060Z,41.68
2023-03-26T16:30:46.122Z,41.76
2023-03-26T16:34:09.247Z,41.36
2023-03-26T16:37:36.540Z,42.15
2023-03-26T16:41:00.144Z,43.05
2023-03-26T16:44:13.709Z,43.55
2023-03-26T16:47:32.319Z,43.84
2023-03-26T16:50:49.991Z,44.13
2023-03-26T16:54:22.772Z,44.74
2023-03-26T16:57:44.022Z,44.54
2023-03-26T17:00:55.590Z,45.29
2023-03-26T17:04:01.221Z,45.20
2023-03-26T17:07:14.151Z,45.15
2023-03-26T17:10:31.919Z,45.49
2023-03-26T17:13:40.830Z,45.61
2023-03-26T17:16:49.999Z,46.20
2023-03-26T17:20:23.340Z,46.28
2023-03-26T17:23:49.275Z,46.56
2023-03-26T17:27:00.977Z,46.73
2023-03-26T17:30:35.162Z,47.57
2023-03-26T17:33:39.250Z,47.88
2023-03-26T17:36:42.739Z,48.08
2023-03-26T17:39:47.742Z,49.24
2023-03-26T17:43:11.595Z,48.56
2023-03-26T17:46:50.221Z,48.82
2023-03-26T17:50:04.604Z,49.24
2023-03-26T17:53:17.785Z,49.79
2023-03-26T17:56:25.414Z,49.23
2023-03-26T17:59:28.610Z,49.60
2023-03-26T18:03:06.270Z,49.67
2023-03-26T18:06:14.017Z,50.21
2023-03-26T18:09:48.267Z,50.34
2023-03-26T18:13:15.283Z,50.68
2023-03-26T18:16:32.174Z,49.89
2023-03-26T18:19:55.133Z,50.26
2023-03-26T18:22:58.831Z,49.86
2023-03-26T18:26:16.367Z,49.55
2023-03-26T18:29:38.195Z,49.80
2023-03-26T18:33:07.581Z,49.75
2023-03-26T18:36:11.380Z,49.61
2023-03-26T18:39:14.001Z,48.68
2023-03-26T18:42:24.347Z,47.87
2023-03-26T18:45:42.936Z,47.11
2023-03-26T18:48:46.485Z,48.23
2023-03-26T18:51:56.849Z,47.59
2023-03-26T18:54:59.989Z,48.73
2023-03-26T18:58:31.156Z,48.27
2023-03-26T19:01:36.690Z,47.66
2023-03-26T19:04:39.764Z,48.44
2023-03-26T19:07:42.888Z,48.27
2023-03-26T19:10:48.046Z,47.37
2023-03-26T19:13:59.969Z,47.22
2023-03-26T19:17:05.518Z,46.69
2023-03-26T19:20:15.227Z,47.29
2023-03-26T19:23:21.260Z,48.02
2023-03-26T19:26:23.866Z,47.68
2023-03-26T19:29:32.255Z,49.21
2023-03-26T19:32:35.194Z,49.70
2023-03-26T19:35:39.810Z,50.87
2023-03-26T19:38:44.941Z,51.89
2023-03-26T19:41:51.152Z,52.00
2023-03-26T19:44:53.865Z,52.83
2023-03-26T19:48:07.768Z,51.47
2023-03-26T19:51:23.284Z,51.23
2023-03-26T19:54:26.503Z,50.75
2023-03-26T19:57:32.022Z,50.70
2023-03-26T20:00:34.835Z,50.75
2023-03-26T20:03:40.586Z,50.85
2023-03-26T20:10:06.491Z,51.74
2023-03-26T20:13:16.344Z,52.25
2023-03-26T20:16:29.110Z,52.85
2023-03-26T20:19:31.632Z,51.36
2023-03-26T20:22:33.845Z,50.54
2023-03-26T20:25:36.346Z,49.92
2023-03-26T20:28:47.568Z,49.26
2023-03-26T20:31:50.931Z,48.94
2023-03-26T20:34:53.395Z,49.16
2023-03-26T20:37:55.784Z,48.39
2023-03-26T20:40:58.361Z,48.33
2023-03-26T20:44:01.039Z,48.07
2023-03-26T20:47:03.862Z,48.09
2023-03-26T20:50:07.121Z,47.43
2023-03-26T20:53:14.978Z,47.70
2023-03-26T20:56:18.829Z,49.66
2023-03-26T20:59:26.713Z,50.03
2023-03-26T21:02:29.344Z,50.14
2023-03-26T21:05:32.402Z,51.24
2023-03-26T21:08:34.792Z,51.70
2023-03-26T21:11:45.886Z,50.33
2023-03-26T21:14:48.345Z,51.80
2023-03-26T21:17:52.080Z,51.81
2023-03-26T21:21:22.338Z,51.58
2023-03-26T21:24:35.206Z,51.95
2023-03-26T21:27:46.596Z,51.85
2023-03-26T21:30:48.896Z,51.95
2023-03-26T21:33:51.960Z,53.40
2023-03-26T21:36:54.651Z,53.34
2023-03-26T21:39:57.274Z,53.16
2023-03-26T21:42:59.744Z,53.75
2023-03-26T21:46:02.322Z,54.11
2023-03-26T21:49:04.799Z,57.94
2023-03-26T21:52:07.667Z,65.37
2023-03-26T21:55:11.553Z,74.62
2023-03-26T21:58:26.853Z,81.64
2023-03-26T22:02:26.505Z,82.70
2023-03-26T22:05:41.115Z,89.12
2023-03-26T22:08:43.473Z,75.26
2023-03-26T22:11:45.658Z,80.95
2023-03-26T22:14:47.867Z,78.40
2023-03-26T22:17:55.961Z,83.93
2023-03-26T22:20:59.899Z,82.67
2023-03-26T22:24:03.868Z,83.80
2023-03-26T22:27:08.385Z,93.21
2023-03-26T22:30:12.177Z,94.55
2023-03-26T22:33:14.444Z,92.75
2023-03-26T22:36:23.432Z,100.00
2023-03-26T22:39:25.932Z,100.00
2023-03-26T22:42:28.355Z,100.00
2023-03-26T22:45:30.578Z,100.00
2023-03-26T22:48:33.298Z,100.00
2023-03-26T22:51:35.715Z,100.00
2023-03-26T22:54:38.697Z,100.00
2023-03-26T22:57:41.409Z,100.00
2023-03-26T23:00:45.410Z,100.00
2023-03-26T23:03:47.711Z,100.00
2023-03-26T23:06:49.886Z,100.00
2023-03-26T23:09:53.079Z,100.00
2023-03-26T23:12:55.269Z,100.00
2023-03-26T23:15:57.463Z,100.00
2023-03-26T23:18:59.748Z,100.00
2023-03-26T23:22:01.956Z,100.00
2023-03-26T23:25:04.358Z,100.00
2023-03-26T23:28:06.596Z,100.00
2023-03-26T23:31:10.287Z,100.00
2023-03-26T23:34:13.641Z,100.00
2023-03-26T23:37:22.849Z,100.00
2023-03-26T23:40:25.136Z,100.00
2023-03-26T23:43:27.765Z,100.00
2023-03-26T23:46:33.109Z,100.00
2023-03-26T23:49:35.399Z,100.00
2023-03-26T23:52:37.647Z,100.00
2023-03-26T23:55:40.085Z,100.00
2023-03-26T23:58:42.953Z,100.00
